sensor_id;sensor_type;location;lat;lon;timestamp;P1;durP1;ratioP1;P2;durP2;ratioP2
71896;SDS011;59767;51.344;12.362;2023-07-13T00:00:14;4.32;;;1.40;;
71896;SDS011;59767;51.344;12.362;2023-07-13T00:03:21;4.70;;;1.42;;
71896;SDS011;59767;51.344;12.362;2023-07-13T00:06:26;6.63;;;1.60;;
71896;SDS011;59767;51.344;12.362;2023-07-13T00:09:34;4.65;;;1.42;;
71896;SDS011;59767;51.344;12.362;2023-07-13T00:12:38;4.80;;;1.50;;
71896;SDS011;59767;51.344;12.362;2023-07-13T00:15:45;7.07;;;1.70;;
71896;SDS011;59767;51.344;12.362;2023-07-13T00:18:49;5.78;;;1.40;;
71896;SDS011;59767;51.344;12.362;2023-07-13T00:21:53;4.18;;;1.35;;
71896;SDS011;59767;51.344;12.362;2023-07-13T00:24:59;6.78;;;1.50;;
71896;SDS011;59767;51.344;12.362;2023-07-13T00:28:04;5.18;;;1.52;;
71896;SDS011;59767;51.344;12.362;2023-07-13T00:31:08;5.13;;;1.45;;
71896;SDS011;59767;51.344;12.362;2023-07-13T00:34:14;5.60;;;1.55;;
71896;SDS011;59767;51.344;12.362;2023-07-13T00:37:18;4.38;;;1.40;;
71896;SDS011;59767;51.344;12.362;2023-07-13T00:40:23;6.75;;;1.40;;
71896;SDS011;59767;51.344;12.362;2023-07-13T00:43:27;6.13;;;1.42;;
71896;SDS011;59767;51.344;12.362;2023-07-13T00:46:32;4.57;;;1.40;;
71896;SDS011;59767;51.344;12.362;2023-07-13T00:49:38;6.07;;;1.75;;
71896;SDS011;59767;51.344;12.362;2023-07-13T00:52:44;4.22;;;1.60;;
71896;SDS011;59767;51.344;12.362;2023-07-13T00:55:51;6.65;;;1.58;;
71896;SDS011;59767;51.344;12.362;2023-07-13T00:58:57;5.22;;;1.60;;
71896;SDS011;59767;51.344;12.362;2023-07-13T01:02:03;7.53;;;1.48;;
71896;SDS011;59767;51.344;12.362;2023-07-13T01:05:11;5.78;;;1.60;;
71896;SDS011;59767;51.344;12.362;2023-07-13T01:08:23;9.57;;;1.60;;
71896;SDS011;59767;51.344;12.362;2023-07-13T01:11:27;6.50;;;1.50;;
71896;SDS011;59767;51.344;12.362;2023-07-13T01:14:31;6.05;;;1.30;;
71896;SDS011;59767;51.344;12.362;2023-07-13T01:17:35;3.65;;;1.40;;
71896;SDS011;59767;51.344;12.362;2023-07-13T01:20:40;7.55;;;1.55;;
71896;SDS011;59767;51.344;12.362;2023-07-13T01:23:45;4.25;;;1.40;;
71896;SDS011;59767;51.344;12.362;2023-07-13T01:26:49;6.38;;;1.38;;
71896;SDS011;59767;51.344;12.362;2023-07-13T01:29:53;6.93;;;1.55;;
71896;SDS011;59767;51.344;12.362;2023-07-13T01:33:06;6.35;;;1.55;;
71896;SDS011;59767;51.344;12.362;2023-07-13T01:36:11;8.18;;;1.50;;
71896;SDS011;59767;51.344;12.362;2023-07-13T01:39:16;7.55;;;1.67;;
71896;SDS011;59767;51.344;12.362;2023-07-13T01:42:20;5.35;;;1.30;;
71896;SDS011;59767;51.344;12.362;2023-07-13T01:45:24;8.52;;;1.40;;
71896;SDS011;59767;51.344;12.362;2023-07-13T01:48:28;6.72;;;1.73;;
71896;SDS011;59767;51.344;12.362;2023-07-13T01:51:32;8.38;;;1.60;;
71896;SDS011;59767;51.344;12.362;2023-07-13T01:54:36;8.90;;;1.67;;
71896;SDS011;59767;51.344;12.362;2023-07-13T01:57:41;5.63;;;1.50;;
71896;SDS011;59767;51.344;12.362;2023-07-13T02:00:47;3.95;;;1.50;;
71896;SDS011;59767;51.344;12.362;2023-07-13T02:03:52;9.57;;;1.45;;
71896;SDS011;59767;51.344;12.362;2023-07-13T02:06:56;5.90;;;1.60;;
71896;SDS011;59767;51.344;12.362;2023-07-13T02:10:00;10.95;;;1.50;;
71896;SDS011;59767;51.344;12.362;2023-07-13T02:13:05;5.65;;;1.60;;
71896;SDS011;59767;51.344;12.362;2023-07-13T02:16:10;8.60;;;1.42;;
71896;SDS011;59767;51.344;12.362;2023-07-13T02:19:15;6.70;;;1.48;;
71896;SDS011;59767;51.344;12.362;2023-07-13T02:22:20;8.75;;;1.58;;
71896;SDS011;59767;51.344;12.362;2023-07-13T02:25:24;8.68;;;1.75;;
71896;SDS011;59767;51.344;12.362;2023-07-13T02:28:30;9.98;;;1.70;;
71896;SDS011;59767;51.344;12.362;2023-07-13T02:31:34;6.35;;;1.52;;
71896;SDS011;59767;51.344;12.362;2023-07-13T02:34:41;8.52;;;1.50;;
71896;SDS011;59767;51.344;12.362;2023-07-13T02:37:46;6.93;;;1.58;;
71896;SDS011;59767;51.344;12.362;2023-07-13T02:40:50;5.10;;;1.55;;
71896;SDS011;59767;51.344;12.362;2023-07-13T02:43:54;5.50;;;1.50;;
71896;SDS011;59767;51.344;12.362;2023-07-13T02:47:06;8.40;;;1.75;;
71896;SDS011;59767;51.344;12.362;2023-07-13T02:50:10;5.45;;;1.48;;
71896;SDS011;59767;51.344;12.362;2023-07-13T02:53:14;8.35;;;1.40;;
71896;SDS011;59767;51.344;12.362;2023-07-13T02:56:21;8.82;;;1.65;;
71896;SDS011;59767;51.344;12.362;2023-07-13T02:59:30;6.95;;;1.50;;
71896;SDS011;59767;51.344;12.362;2023-07-13T03:02:35;8.43;;;1.60;;
71896;SDS011;59767;51.344;12.362;2023-07-13T03:05:40;7.32;;;1.58;;
71896;SDS011;59767;51.344;12.362;2023-07-13T03:08:45;5.93;;;1.60;;
71896;SDS011;59767;51.344;12.362;2023-07-13T03:11:52;5.20;;;1.60;;
71896;SDS011;59767;51.344;12.362;2023-07-13T03:14:57;5.85;;;1.80;;
71896;SDS011;59767;51.344;12.362;2023-07-13T03:18:02;5.32;;;1.65;;
71896;SDS011;59767;51.344;12.362;2023-07-13T03:21:06;7.40;;;1.67;;
71896;SDS011;59767;51.344;12.362;2023-07-13T03:24:10;6.90;;;1.50;;
71896;SDS011;59767;51.344;12.362;2023-07-13T03:27:15;8.13;;;1.88;;
71896;SDS011;59767;51.344;12.362;2023-07-13T03:30:21;9.00;;;1.80;;
71896;SDS011;59767;51.344;12.362;2023-07-13T03:33:25;6.65;;;1.70;;
71896;SDS011;59767;51.344;12.362;2023-07-13T03:36:29;7.03;;;1.70;;
71896;SDS011;59767;51.344;12.362;2023-07-13T03:39:34;7.72;;;1.70;;
71896;SDS011;59767;51.344;12.362;2023-07-13T03:42:38;10.80;;;1.80;;
71896;SDS011;59767;51.344;12.362;2023-07-13T03:45:42;7.50;;;1.83;;
71896;SDS011;59767;51.344;12.362;2023-07-13T03:48:47;7.82;;;1.80;;
71896;SDS011;59767;51.344;12.362;2023-07-13T03:51:51;7.15;;;1.73;;
71896;SDS011;59767;51.344;12.362;2023-07-13T03:54:57;5.85;;;1.80;;
71896;SDS011;59767;51.344;12.362;2023-07-13T04:01:44;5.78;;;1.73;;
71896;SDS011;59767;51.344;12.362;2023-07-13T04:04:48;8.45;;;2.00;;
71896;SDS011;59767;51.344;12.362;2023-07-13T04:07:53;9.52;;;1.80;;
71896;SDS011;59767;51.344;12.362;2023-07-13T04:10:57;8.55;;;1.90;;
71896;SDS011;59767;51.344;12.362;2023-07-13T04:14:02;7.78;;;1.80;;
71896;SDS011;59767;51.344;12.362;2023-07-13T04:17:06;7.32;;;1.80;;
71896;SDS011;59767;51.344;12.362;2023-07-13T04:20:10;6.72;;;1.90;;
71896;SDS011;59767;51.344;12.362;2023-07-13T04:23:15;6.15;;;1.90;;
71896;SDS011;59767;51.344;12.362;2023-07-13T04:26:22;7.63;;;2.17;;
71896;SDS011;59767;51.344;12.362;2023-07-13T04:29:27;6.50;;;2.05;;
71896;SDS011;59767;51.344;12.362;2023-07-13T04:32:31;8.60;;;1.90;;
71896;SDS011;59767;51.344;12.362;2023-07-13T04:35:36;7.10;;;2.03;;
71896;SDS011;59767;51.344;12.362;2023-07-13T04:38:40;14.77;;;2.10;;
71896;SDS011;59767;51.344;12.362;2023-07-13T04:41:45;10.00;;;2.00;;
71896;SDS011;59767;51.344;12.362;2023-07-13T04:44:49;9.63;;;2.30;;
71896;SDS011;59767;51.344;12.362;2023-07-13T04:47:54;7.28;;;2.42;;
71896;SDS011;59767;51.344;12.362;2023-07-13T04:50:58;5.28;;;1.80;;
71896;SDS011;59767;51.344;12.362;2023-07-13T04:54:05;6.88;;;2.20;;
71896;SDS011;59767;51.344;12.362;2023-07-13T04:57:11;7.05;;;2.10;;
71896;SDS011;59767;51.344;12.362;2023-07-13T05:00:16;8.50;;;2.10;;
71896;SDS011;59767;51.344;12.362;2023-07-13T05:03:20;8.18;;;2.28;;
71896;SDS011;59767;51.344;12.362;2023-07-13T05:06:24;7.50;;;2.03;;
71896;SDS011;59767;51.344;12.362;2023-07-13T05:09:28;9.40;;;2.10;;
71896;SDS011;59767;51.344;12.362;2023-07-13T05:12:32;9.57;;;2.10;;
71896;SDS011;59767;51.344;12.362;2023-07-13T05:15:36;8.35;;;2.00;;
71896;SDS011;59767;51.344;12.362;2023-07-13T05:18:40;7.40;;;2.00;;
71896;SDS011;59767;51.344;12.362;2023-07-13T05:21:46;7.15;;;1.90;;
71896;SDS011;59767;51.344;12.362;2023-07-13T05:24:50;7.47;;;1.83;;
71896;SDS011;59767;51.344;12.362;2023-07-13T05:27:54;16.08;;;2.20;;
71896;SDS011;59767;51.344;12.362;2023-07-13T05:30:59;5.95;;;1.88;;
71896;SDS011;59767;51.344;12.362;2023-07-13T05:34:03;8.95;;;2.13;;
71896;SDS011;59767;51.344;12.362;2023-07-13T05:37:07;10.02;;;2.17;;
71896;SDS011;59767;51.344;12.362;2023-07-13T05:40:12;7.60;;;1.90;;
71896;SDS011;59767;51.344;12.362;2023-07-13T05:43:16;8.88;;;2.03;;
71896;SDS011;59767;51.344;12.362;2023-07-13T05:46:20;12.00;;;2.00;;
71896;SDS011;59767;51.344;12.362;2023-07-13T05:49:24;14.25;;;2.17;;
71896;SDS011;59767;51.344;12.362;2023-07-13T05:52:28;4.15;;;1.50;;
71896;SDS011;59767;51.344;12.362;2023-07-13T05:55:33;6.00;;;1.70;;
71896;SDS011;59767;51.344;12.362;2023-07-13T05:58:37;9.18;;;1.90;;
71896;SDS011;59767;51.344;12.362;2023-07-13T06:01:41;7.95;;;1.95;;
71896;SDS011;59767;51.344;12.362;2023-07-13T06:04:49;8.80;;;1.98;;
71896;SDS011;59767;51.344;12.362;2023-07-13T06:07:56;8.88;;;1.90;;
71896;SDS011;59767;51.344;12.362;2023-07-13T06:14:07;11.20;;;1.90;;
71896;SDS011;59767;51.344;12.362;2023-07-13T06:17:11;8.95;;;1.85;;
71896;SDS011;59767;51.344;12.362;2023-07-13T06:20:16;6.25;;;1.73;;
71896;SDS011;59767;51.344;12.362;2023-07-13T06:23:20;9.20;;;2.00;;
71896;SDS011;59767;51.344;12.362;2023-07-13T06:26:26;7.82;;;1.90;;
71896;SDS011;59767;51.344;12.362;2023-07-13T06:29:30;6.47;;;1.70;;
71896;SDS011;59767;51.344;12.362;2023-07-13T06:32:35;7.45;;;1.70;;
71896;SDS011;59767;51.344;12.362;2023-07-13T06:35:43;8.68;;;1.80;;
71896;SDS011;59767;51.344;12.362;2023-07-13T06:38:47;8.55;;;1.85;;
71896;SDS011;59767;51.344;12.362;2023-07-13T06:41:51;12.43;;;1.90;;
71896;SDS011;59767;51.344;12.362;2023-07-13T06:44:55;10.45;;;1.90;;
71896;SDS011;59767;51.344;12.362;2023-07-13T06:47:59;10.60;;;1.90;;
71896;SDS011;59767;51.344;12.362;2023-07-13T06:51:03;8.07;;;1.77;;
71896;SDS011;59767;51.344;12.362;2023-07-13T06:54:07;10.73;;;1.83;;
71896;SDS011;59767;51.344;12.362;2023-07-13T06:57:11;6.57;;;1.63;;
71896;SDS011;59767;51.344;12.362;2023-07-13T07:00:16;10.70;;;1.90;;
71896;SDS011;59767;51.344;12.362;2023-07-13T07:03:20;8.10;;;1.70;;
71896;SDS011;59767;51.344;12.362;2023-07-13T07:06:25;8.18;;;1.90;;
71896;SDS011;59767;51.344;12.362;2023-07-13T07:09:29;7.57;;;1.92;;
71896;SDS011;59767;51.344;12.362;2023-07-13T07:12:35;11.07;;;1.90;;
71896;SDS011;59767;51.344;12.362;2023-07-13T07:15:39;10.60;;;1.75;;
71896;SDS011;59767;51.344;12.362;2023-07-13T07:18:44;6.90;;;1.88;;
71896;SDS011;59767;51.344;12.362;2023-07-13T07:21:48;10.90;;;2.33;;
71896;SDS011;59767;51.344;12.362;2023-07-13T07:24:52;9.57;;;1.63;;
71896;SDS011;59767;51.344;12.362;2023-07-13T07:27:59;5.20;;;1.40;;
71896;SDS011;59767;51.344;12.362;2023-07-13T07:31:06;8.07;;;1.70;;
71896;SDS011;59767;51.344;12.362;2023-07-13T07:34:14;6.90;;;1.70;;
71896;SDS011;59767;51.344;12.362;2023-07-13T07:37:18;6.18;;;1.50;;
71896;SDS011;59767;51.344;12.362;2023-07-13T07:40:25;6.30;;;1.70;;
71896;SDS011;59767;51.344;12.362;2023-07-13T07:43:33;10.48;;;1.70;;
71896;SDS011;59767;51.344;12.362;2023-07-13T07:46:38;7.70;;;1.90;;
71896;SDS011;59767;51.344;12.362;2023-07-13T07:49:44;9.15;;;1.98;;
71896;SDS011;59767;51.344;12.362;2023-07-13T07:52:48;9.68;;;1.50;;
71896;SDS011;59767;51.344;12.362;2023-07-13T07:55:52;6.75;;;1.65;;
71896;SDS011;59767;51.344;12.362;2023-07-13T07:58:59;6.63;;;1.40;;
71896;SDS011;59767;51.344;12.362;2023-07-13T08:02:08;11.40;;;1.70;;
71896;SDS011;59767;51.344;12.362;2023-07-13T08:05:37;12.75;;;1.80;;
71896;SDS011;59767;51.344;12.362;2023-07-13T08:08:59;5.82;;;1.40;;
71896;SDS011;59767;51.344;12.362;2023-07-13T08:12:03;9.90;;;1.83;;
71896;SDS011;59767;51.344;12.362;2023-07-13T08:15:13;6.82;;;1.55;;
71896;SDS011;59767;51.344;12.362;2023-07-13T08:18:20;6.85;;;1.80;;
71896;SDS011;59767;51.344;12.362;2023-07-13T08:21:24;7.53;;;1.70;;
71896;SDS011;59767;51.344;12.362;2023-07-13T08:24:28;12.32;;;1.70;;
71896;SDS011;59767;51.344;12.362;2023-07-13T08:27:32;9.25;;;1.80;;
71896;SDS011;59767;51.344;12.362;2023-07-13T08:30:37;11.05;;;1.70;;
71896;SDS011;59767;51.344;12.362;2023-07-13T08:33:41;9.95;;;1.90;;
71896;SDS011;59767;51.344;12.362;2023-07-13T08:36:46;9.57;;;1.70;;
71896;SDS011;59767;51.344;12.362;2023-07-13T08:39:50;10.95;;;1.90;;
71896;SDS011;59767;51.344;12.362;2023-07-13T08:42:55;8.73;;;2.15;;
71896;SDS011;59767;51.344;12.362;2023-07-13T08:49:18;5.32;;;1.60;;
71896;SDS011;59767;51.344;12.362;2023-07-13T08:55:41;9.57;;;1.98;;
71896;SDS011;59767;51.344;12.362;2023-07-13T08:58:46;7.93;;;1.90;;
71896;SDS011;59767;51.344;12.362;2023-07-13T09:02:20;8.10;;;1.75;;
71896;SDS011;59767;51.344;12.362;2023-07-13T09:05:30;9.15;;;1.80;;
71896;SDS011;59767;51.344;12.362;2023-07-13T09:18:56;10.55;;;1.80;;
71896;SDS011;59767;51.344;12.362;2023-07-13T09:22:08;8.65;;;1.55;;
71896;SDS011;59767;51.344;12.362;2023-07-13T09:25:23;12.15;;;2.00;;
71896;SDS011;59767;51.344;12.362;2023-07-13T09:28:34;7.13;;;1.52;;
71896;SDS011;59767;51.344;12.362;2023-07-13T09:31:45;7.97;;;1.60;;
71896;SDS011;59767;51.344;12.362;2023-07-13T09:34:53;7.75;;;1.52;;
71896;SDS011;59767;51.344;12.362;2023-07-13T09:38:19;6.85;;;1.58;;
71896;SDS011;59767;51.344;12.362;2023-07-13T09:41:26;3.92;;;1.35;;
71896;SDS011;59767;51.344;12.362;2023-07-13T09:47:53;8.93;;;1.85;;
71896;SDS011;59767;51.344;12.362;2023-07-13T09:51:13;7.00;;;1.70;;
71896;SDS011;59767;51.344;12.362;2023-07-13T09:54:24;8.35;;;1.70;;
71896;SDS011;59767;51.344;12.362;2023-07-13T09:57:29;6.32;;;1.60;;
71896;SDS011;59767;51.344;12.362;2023-07-13T10:00:54;5.78;;;1.60;;
71896;SDS011;59767;51.344;12.362;2023-07-13T10:04:01;7.75;;;1.80;;
71896;SDS011;59767;51.344;12.362;2023-07-13T10:07:08;5.60;;;1.77;;
71896;SDS011;59767;51.344;12.362;2023-07-13T10:10:33;13.27;;;1.70;;
71896;SDS011;59767;51.344;12.362;2023-07-13T10:13:43;11.48;;;1.60;;
71896;SDS011;59767;51.344;12.362;2023-07-13T10:16:48;5.85;;;1.40;;
71896;SDS011;59767;51.344;12.362;2023-07-13T10:20:02;10.30;;;1.60;;
71896;SDS011;59767;51.344;12.362;2023-07-13T10:23:14;6.60;;;1.60;;
71896;SDS011;59767;51.344;12.362;2023-07-13T10:26:25;5.13;;;1.40;;
71896;SDS011;59767;51.344;12.362;2023-07-13T10:29:34;7.78;;;1.48;;
71896;SDS011;59767;51.344;12.362;2023-07-13T10:32:41;6.25;;;1.60;;
71896;SDS011;59767;51.344;12.362;2023-07-13T10:35:45;10.43;;;1.70;;
71896;SDS011;59767;51.344;12.362;2023-07-13T10:38:51;9.45;;;1.50;;
71896;SDS011;59767;51.344;12.362;2023-07-13T10:42:03;10.45;;;1.58;;
71896;SDS011;59767;51.344;12.362;2023-07-13T10:45:14;8.10;;;1.88;;
71896;SDS011;59767;51.344;12.362;2023-07-13T10:48:21;6.57;;;1.60;;
71896;SDS011;59767;51.344;12.362;2023-07-13T10:51:27;8.95;;;1.55;;
71896;SDS011;59767;51.344;12.362;2023-07-13T10:54:32;8.15;;;1.60;;
71896;SDS011;59767;51.344;12.362;2023-07-13T10:57:41;3.00;;;1.20;;
71896;SDS011;59767;51.344;12.362;2023-07-13T11:00:47;5.47;;;1.25;;
71896;SDS011;59767;51.344;12.362;2023-07-13T11:03:55;8.75;;;1.42;;
71896;SDS011;59767;51.344;12.362;2023-07-13T11:07:10;8.85;;;1.52;;
71896;SDS011;59767;51.344;12.362;2023-07-13T11:10:45;7.38;;;1.50;;
71896;SDS011;59767;51.344;12.362;2023-07-13T11:13:59;6.05;;;1.10;;
71896;SDS011;59767;51.344;12.362;2023-07-13T11:17:25;5.07;;;1.10;;
71896;SDS011;59767;51.344;12.362;2023-07-13T11:20:39;3.70;;;1.10;;
71896;SDS011;59767;51.344;12.362;2023-07-13T11:23:44;6.63;;;1.23;;
71896;SDS011;59767;51.344;12.362;2023-07-13T11:26:55;4.40;;;1.15;;
71896;SDS011;59767;51.344;12.362;2023-07-13T11:36:41;4.15;;;1.30;;
71896;SDS011;59767;51.344;12.362;2023-07-13T11:39:48;4.03;;;1.17;;
71896;SDS011;59767;51.344;12.362;2023-07-13T11:42:59;10.30;;;1.25;;
71896;SDS011;59767;51.344;12.362;2023-07-13T11:49:30;3.30;;;1.17;;
71896;SDS011;59767;51.344;12.362;2023-07-13T11:52:36;14.00;;;1.60;;
71896;SDS011;59767;51.344;12.362;2023-07-13T11:55:41;7.63;;;1.10;;
71896;SDS011;59767;51.344;12.362;2023-07-13T11:58:53;7.18;;;1.10;;
71896;SDS011;59767;51.344;12.362;2023-07-13T12:01:59;2.28;;;1.00;;
71896;SDS011;59767;51.344;12.362;2023-07-13T12:05:04;6.50;;;2.50;;
71896;SDS011;59767;51.344;12.362;2023-07-13T12:08:11;3.70;;;1.20;;
71896;SDS011;59767;51.344;12.362;2023-07-13T12:11:26;3.22;;;1.10;;
71896;SDS011;59767;51.344;12.362;2023-07-13T12:14:33;5.43;;;1.20;;
71896;SDS011;59767;51.344;12.362;2023-07-13T12:17:37;6.30;;;1.15;;
71896;SDS011;59767;51.344;12.362;2023-07-13T12:20:42;4.13;;;1.02;;
71896;SDS011;59767;51.344;12.362;2023-07-13T12:23:47;4.82;;;1.00;;
71896;SDS011;59767;51.344;12.362;2023-07-13T12:27:00;4.57;;;1.00;;
71896;SDS011;59767;51.344;12.362;2023-07-13T12:30:22;3.50;;;1.10;;
71896;SDS011;59767;51.344;12.362;2023-07-13T12:33:30;4.68;;;1.10;;
71896;SDS011;59767;51.344;12.362;2023-07-13T12:36:37;6.25;;;1.08;;
71896;SDS011;59767;51.344;12.362;2023-07-13T12:39:47;3.38;;;1.15;;
71896;SDS011;59767;51.344;12.362;2023-07-13T12:42:52;4.53;;;0.98;;
71896;SDS011;59767;51.344;12.362;2023-07-13T12:45:57;4.65;;;1.20;;
71896;SDS011;59767;51.344;12.362;2023-07-13T12:49:05;5.00;;;1.40;;
71896;SDS011;59767;51.344;12.362;2023-07-13T12:52:23;4.82;;;1.45;;
71896;SDS011;59767;51.344;12.362;2023-07-13T12:55:47;4.07;;;1.10;;
71896;SDS011;59767;51.344;12.362;2023-07-13T12:58:57;6.60;;;1.30;;
71896;SDS011;59767;51.344;12.362;2023-07-13T13:02:08;3.58;;;1.00;;
71896;SDS011;59767;51.344;12.362;2023-07-13T13:05:36;6.70;;;1.20;;
71896;SDS011;59767;51.344;12.362;2023-07-13T13:08:42;7.78;;;1.20;;
71896;SDS011;59767;51.344;12.362;2023-07-13T13:11:47;5.70;;;1.10;;
71896;SDS011;59767;51.344;12.362;2023-07-13T13:14:51;6.32;;;1.30;;
71896;SDS011;59767;51.344;12.362;2023-07-13T13:17:56;7.38;;;1.10;;
71896;SDS011;59767;51.344;12.362;2023-07-13T13:21:02;4.05;;;0.80;;
71896;SDS011;59767;51.344;12.362;2023-07-13T13:24:10;2.15;;;0.90;;
71896;SDS011;59767;51.344;12.362;2023-07-13T13:27:16;4.32;;;1.15;;
71896;SDS011;59767;51.344;12.362;2023-07-13T13:30:22;5.43;;;0.95;;
71896;SDS011;59767;51.344;12.362;2023-07-13T13:33:26;6.07;;;1.10;;
71896;SDS011;59767;51.344;12.362;2023-07-13T13:36:30;7.30;;;1.20;;
71896;SDS011;59767;51.344;12.362;2023-07-13T13:39:35;4.82;;;1.10;;
71896;SDS011;59767;51.344;12.362;2023-07-13T13:42:40;4.65;;;1.23;;
71896;SDS011;59767;51.344;12.362;2023-07-13T13:45:44;4.55;;;1.00;;
71896;SDS011;59767;51.344;12.362;2023-07-13T13:48:50;4.07;;;1.27;;
71896;SDS011;59767;51.344;12.362;2023-07-13T13:51:55;5.70;;;1.20;;
71896;SDS011;59767;51.344;12.362;2023-07-13T13:54:59;8.25;;;1.30;;
71896;SDS011;59767;51.344;12.362;2023-07-13T13:58:04;16.10;;;1.92;;
71896;SDS011;59767;51.344;12.362;2023-07-13T14:01:12;7.72;;;1.30;;
71896;SDS011;59767;51.344;12.362;2023-07-13T14:04:21;5.95;;;1.23;;
71896;SDS011;59767;51.344;12.362;2023-07-13T14:07:25;18.50;;;2.13;;
71896;SDS011;59767;51.344;12.362;2023-07-13T14:10:30;5.07;;;1.48;;
71896;SDS011;59767;51.344;12.362;2023-07-13T14:13:35;6.18;;;1.20;;
71896;SDS011;59767;51.344;12.362;2023-07-13T14:16:43;5.15;;;1.20;;
71896;SDS011;59767;51.344;12.362;2023-07-13T14:19:48;8.07;;;1.20;;
71896;SDS011;59767;51.344;12.362;2023-07-13T14:23:00;6.07;;;1.40;;
71896;SDS011;59767;51.344;12.362;2023-07-13T14:26:12;6.90;;;1.20;;
71896;SDS011;59767;51.344;12.362;2023-07-13T14:29:18;3.65;;;1.17;;
71896;SDS011;59767;51.344;12.362;2023-07-13T14:32:27;8.50;;;1.40;;
71896;SDS011;59767;51.344;12.362;2023-07-13T14:35:31;6.53;;;1.15;;
71896;SDS011;59767;51.344;12.362;2023-07-13T14:38:37;4.50;;;1.10;;
71896;SDS011;59767;51.344;12.362;2023-07-13T14:41:41;3.78;;;1.50;;
71896;SDS011;59767;51.344;12.362;2023-07-13T14:44:45;2.97;;;1.10;;
71896;SDS011;59767;51.344;12.362;2023-07-13T14:47:49;6.60;;;1.35;;
71896;SDS011;59767;51.344;12.362;2023-07-13T14:50:55;4.13;;;1.30;;
71896;SDS011;59767;51.344;12.362;2023-07-13T14:54:04;4.00;;;1.10;;
71896;SDS011;59767;51.344;12.362;2023-07-13T14:57:11;8.02;;;1.40;;
71896;SDS011;59767;51.344;12.362;2023-07-13T15:00:25;7.47;;;1.27;;
71896;SDS011;59767;51.344;12.362;2023-07-13T15:03:29;3.20;;;1.10;;
71896;SDS011;59767;51.344;12.362;2023-07-13T15:09:58;6.60;;;1.15;;
71896;SDS011;59767;51.344;12.362;2023-07-13T15:13:21;7.07;;;1.23;;
71896;SDS011;59767;51.344;12.362;2023-07-13T15:16:26;9.93;;;1.85;;
71896;SDS011;59767;51.344;12.362;2023-07-13T15:19:31;6.57;;;1.30;;
71896;SDS011;59767;51.344;12.362;2023-07-13T15:22:35;5.38;;;1.20;;
71896;SDS011;59767;51.344;12.362;2023-07-13T15:25:40;3.95;;;1.23;;
71896;SDS011;59767;51.344;12.362;2023-07-13T15:28:45;7.18;;;1.30;;
71896;SDS011;59767;51.344;12.362;2023-07-13T15:31:50;7.28;;;1.40;;
71896;SDS011;59767;51.344;12.362;2023-07-13T15:34:54;4.00;;;1.20;;
71896;SDS011;59767;51.344;12.362;2023-07-13T15:37:58;6.60;;;1.25;;
71896;SDS011;59767;51.344;12.362;2023-07-13T15:41:04;6.50;;;1.50;;
71896;SDS011;59767;51.344;12.362;2023-07-13T15:47:28;5.35;;;1.30;;
71896;SDS011;59767;51.344;12.362;2023-07-13T15:50:38;6.15;;;1.40;;
71896;SDS011;59767;51.344;12.362;2023-07-13T15:53:46;3.60;;;1.30;;
71896;SDS011;59767;51.344;12.362;2023-07-13T15:56:53;4.43;;;1.23;;
71896;SDS011;59767;51.344;12.362;2023-07-13T15:59:58;4.70;;;1.67;;
71896;SDS011;59767;51.344;12.362;2023-07-13T16:03:03;5.50;;;1.33;;
71896;SDS011;59767;51.344;12.362;2023-07-13T16:06:19;5.32;;;1.40;;
71896;SDS011;59767;51.344;12.362;2023-07-13T16:09:27;6.47;;;1.30;;
71896;SDS011;59767;51.344;12.362;2023-07-13T16:12:31;4.68;;;1.40;;
71896;SDS011;59767;51.344;12.362;2023-07-13T16:15:37;3.58;;;1.10;;
71896;SDS011;59767;51.344;12.362;2023-07-13T16:18:41;4.25;;;1.40;;
71896;SDS011;59767;51.344;12.362;2023-07-13T16:21:46;4.07;;;1.20;;
71896;SDS011;59767;51.344;12.362;2023-07-13T16:24:54;6.25;;;1.58;;
71896;SDS011;59767;51.344;12.362;2023-07-13T16:28:00;6.90;;;1.50;;
71896;SDS011;59767;51.344;12.362;2023-07-13T16:31:04;4.97;;;1.33;;
71896;SDS011;59767;51.344;12.362;2023-07-13T16:34:11;4.78;;;1.20;;
71896;SDS011;59767;51.344;12.362;2023-07-13T16:37:19;4.88;;;1.30;;
71896;SDS011;59767;51.344;12.362;2023-07-13T16:40:27;4.95;;;1.30;;
71896;SDS011;59767;51.344;12.362;2023-07-13T16:43:33;2.97;;;1.23;;
71896;SDS011;59767;51.344;12.362;2023-07-13T16:46:37;5.63;;;1.40;;
71896;SDS011;59767;51.344;12.362;2023-07-13T16:49:43;4.68;;;1.30;;
71896;SDS011;59767;51.344;12.362;2023-07-13T16:52:48;4.32;;;1.33;;
71896;SDS011;59767;51.344;12.362;2023-07-13T16:55:54;4.63;;;1.30;;
71896;SDS011;59767;51.344;12.362;2023-07-13T16:59:07;4.05;;;1.40;;
71896;SDS011;59767;51.344;12.362;2023-07-13T17:05:29;4.78;;;1.40;;
71896;SDS011;59767;51.344;12.362;2023-07-13T17:08:33;7.47;;;1.48;;
71896;SDS011;59767;51.344;12.362;2023-07-13T17:11:42;5.47;;;1.30;;
71896;SDS011;59767;51.344;12.362;2023-07-13T17:14:50;10.70;;;1.52;;
71896;SDS011;59767;51.344;12.362;2023-07-13T17:17:54;7.03;;;1.42;;
71896;SDS011;59767;51.344;12.362;2023-07-13T17:21:13;4.22;;;1.40;;
71896;SDS011;59767;51.344;12.362;2023-07-13T17:24:20;5.97;;;1.50;;
71896;SDS011;59767;51.344;12.362;2023-07-13T17:27:28;9.35;;;1.30;;
71896;SDS011;59767;51.344;12.362;2023-07-13T17:30:31;6.18;;;1.42;;
71896;SDS011;59767;51.344;12.362;2023-07-13T17:33:37;5.43;;;1.40;;
71896;SDS011;59767;51.344;12.362;2023-07-13T17:36:43;10.95;;;1.70;;
71896;SDS011;59767;51.344;12.362;2023-07-13T17:39:48;7.63;;;1.60;;
71896;SDS011;59767;51.344;12.362;2023-07-13T17:42:52;6.22;;;1.40;;
71896;SDS011;59767;51.344;12.362;2023-07-13T17:45:59;4.65;;;1.25;;
71896;SDS011;59767;51.344;12.362;2023-07-13T17:49:04;2.78;;;1.02;;
71896;SDS011;59767;51.344;12.362;2023-07-13T17:52:09;6.75;;;1.35;;
71896;SDS011;59767;51.344;12.362;2023-07-13T17:58:18;5.25;;;1.30;;
71896;SDS011;59767;51.344;12.362;2023-07-13T18:01:24;4.47;;;1.35;;
71896;SDS011;59767;51.344;12.362;2023-07-13T18:04:33;5.38;;;1.55;;
71896;SDS011;59767;51.344;12.362;2023-07-13T18:07:41;3.75;;;1.42;;
71896;SDS011;59767;51.344;12.362;2023-07-13T18:10:45;6.07;;;1.30;;
71896;SDS011;59767;51.344;12.362;2023-07-13T18:13:50;5.75;;;1.45;;
71896;SDS011;59767;51.344;12.362;2023-07-13T18:16:55;5.18;;;1.58;;
71896;SDS011;59767;51.344;12.362;2023-07-13T18:20:00;5.35;;;1.90;;
71896;SDS011;59767;51.344;12.362;2023-07-13T18:23:04;4.30;;;2.10;;
71896;SDS011;59767;51.344;12.362;2023-07-13T18:26:12;9.05;;;2.28;;
71896;SDS011;59767;51.344;12.362;2023-07-13T18:29:19;4.05;;;1.90;;
71896;SDS011;59767;51.344;12.362;2023-07-13T18:32:23;5.35;;;1.98;;
71896;SDS011;59767;51.344;12.362;2023-07-13T18:35:28;14.25;;;2.85;;
71896;SDS011;59767;51.344;12.362;2023-07-13T18:38:35;8.13;;;1.90;;
71896;SDS011;59767;51.344;12.362;2023-07-13T18:41:40;6.40;;;2.30;;
71896;SDS011;59767;51.344;12.362;2023-07-13T18:44:44;7.57;;;1.90;;
71896;SDS011;59767;51.344;12.362;2023-07-13T18:47:55;6.45;;;1.80;;
71896;SDS011;59767;51.344;12.362;2023-07-13T18:51:02;5.30;;;1.67;;
71896;SDS011;59767;51.344;12.362;2023-07-13T18:54:13;10.93;;;1.85;;
71896;SDS011;59767;51.344;12.362;2023-07-13T18:57:18;7.55;;;2.00;;
71896;SDS011;59767;51.344;12.362;2023-07-13T19:00:23;9.88;;;1.85;;
71896;SDS011;59767;51.344;12.362;2023-07-13T19:03:32;11.52;;;1.70;;
71896;SDS011;59767;51.344;12.362;2023-07-13T19:06:38;7.10;;;1.58;;
71896;SDS011;59767;51.344;12.362;2023-07-13T19:09:42;8.65;;;1.70;;
71896;SDS011;59767;51.344;12.362;2023-07-13T19:12:48;9.45;;;1.90;;
71896;SDS011;59767;51.344;12.362;2023-07-13T19:15:58;7.75;;;1.60;;